createdAt,value
2022-08-05T00:01:27.887Z,28.40
2022-08-05T00:06:33.259Z,28.30
2022-08-05T00:11:35.171Z,28.20
2022-08-05T00:16:53.385Z,28.10
2022-08-05T00:21:54.066Z,27.90
2022-08-05T00:26:53.172Z,27.90
2022-08-05T00:32:10.092Z,27.90
2022-08-05T00:37:14.404Z,27.80
2022-08-05T00:42:12.459Z,27.70
2022-08-05T00:47:49.174Z,27.50
2022-08-05T00:52:49.793Z,27.30
2022-08-05T00:57:58.389Z,27.20
2022-08-05T01:02:57.681Z,27.00
2022-08-05T01:08:41.885Z,26.90
2022-08-05T01:13:22.448Z,26.80
2022-08-05T01:18:30.837Z,26.70
2022-08-05T01:23:44.839Z,26.60
2022-08-05T01:28:57.370Z,26.50
2022-08-05T01:34:05.673Z,26.40
2022-08-05T01:39:06.535Z,26.30
2022-08-05T01:44:11.339Z,26.30
2022-08-05T01:49:23.800Z,26.20
2022-08-05T01:54:27.216Z,26.20
2022-08-05T01:59:28.883Z,26.10
2022-08-05T02:04:30.610Z,26.10
2022-08-05T02:09:29.053Z,26.10
2022-08-05T02:14:33.236Z,26.20
2022-08-05T02:19:34.719Z,26.30
2022-08-05T02:24:36.977Z,26.40
2022-08-05T02:29:58.093Z,26.40
2022-08-05T02:34:57.929Z,26.40
2022-08-05T02:39:58.973Z,26.40
2022-08-05T02:44:59.831Z,26.40
2022-08-05T02:50:00.528Z,26.40
2022-08-05T02:55:01.783Z,26.40
2022-08-05T03:00:06.500Z,26.30
2022-08-05T03:05:07.547Z,26.30
2022-08-05T03:10:05.951Z,26.30
2022-08-05T03:15:07.523Z,26.20
2022-08-05T03:20:08.466Z,26.30
2022-08-05T03:25:32.553Z,26.20
2022-08-05T03:30:34.102Z,26.20
2022-08-05T03:35:33.743Z,26.10
2022-08-05T03:40:41.346Z,26.20
2022-08-05T03:45:57.681Z,26.20
2022-08-05T03:52:35.455Z,26.20
2022-08-05T03:56:31.912Z,26.20
2022-08-05T04:01:38.658Z,26.10
2022-08-05T04:06:37.894Z,26.10
2022-08-05T04:11:47.463Z,26.10
2022-08-05T04:16:50.523Z,26.20
2022-08-05T04:22:09.849Z,26.30
2022-08-05T04:27:09.126Z,26.40
2022-08-05T04:32:09.192Z,26.40
2022-08-05T04:37:07.225Z,26.50
2022-08-05T04:42:06.050Z,26.50
2022-08-05T04:47:09.024Z,26.50
2022-08-05T04:52:09.733Z,26.70
2022-08-05T04:57:07.722Z,26.80
2022-08-05T05:02:36.742Z,26.90
2022-08-05T05:07:29.430Z,27.00
2022-08-05T05:12:30.187Z,27.10
2022-08-05T05:17:55.719Z,27.20
2022-08-05T05:22:47.747Z,27.30
2022-08-05T05:27:53.651Z,27.40
2022-08-05T05:32:53.775Z,27.40
2022-08-05T05:37:59.432Z,27.20
2022-08-05T05:42:58.930Z,27.10
2022-08-05T05:48:06.371Z,27.20
2022-08-05T05:53:21.350Z,27.30
2022-08-05T05:58:20.717Z,27.30
2022-08-05T06:03:53.980Z,27.10
2022-08-05T06:08:49.192Z,26.70
2022-08-05T06:13:50.263Z,26.70
2022-08-05T06:18:53.588Z,26.60
2022-08-05T06:23:53.063Z,26.60
2022-08-05T06:28:51.045Z,26.40
2022-08-05T06:34:07.280Z,26.20
2022-08-05T06:39:08.680Z,26.20
2022-08-05T06:44:06.913Z,26.20
2022-08-05T06:49:05.899Z,26.30
2022-08-05T06:54:06.405Z,26.50
2022-08-05T06:59:09.872Z,26.50
2022-08-05T07:04:09.886Z,26.70
2022-08-05T07:09:07.952Z,26.90
2022-08-05T07:14:30.373Z,27.20
2022-08-05T07:24:53.575Z,27.30
2022-08-05T07:30:24.441Z,27.40
2022-08-05T07:36:04.783Z,27.30
2022-08-05T07:40:33.016Z,27.10
2022-08-05T07:45:57.201Z,27.00
2022-08-05T07:50:51.488Z,26.80
2022-08-05T07:56:05.380Z,26.70
2022-08-05T08:01:12.251Z,26.60
2022-08-05T08:06:10.512Z,26.40
2022-08-05T08:11:09.146Z,26.40
2022-08-05T08:16:50.351Z,26.50
2022-08-05T08:21:35.725Z,26.50
2022-08-05T08:26:34.555Z,26.70
2022-08-05T08:31:33.848Z,27.00
2022-08-05T08:36:50.174Z,27.00
2022-08-05T08:41:59.894Z,26.80
2022-08-05T08:47:00.916Z,26.70
2022-08-05T08:52:13.468Z,26.60
2022-08-05T08:57:13.339Z,26.60
2022-08-05T09:02:14.457Z,26.50
2022-08-05T09:07:19.589Z,26.50
2022-08-05T09:12:27.296Z,26.50
2022-08-05T09:17:42.386Z,26.40
2022-08-05T09:23:18.900Z,26.40
2022-08-05T09:28:21.155Z,26.60
2022-08-05T09:33:20.872Z,26.90
2022-08-05T09:38:29.365Z,27.50
2022-08-05T09:43:40.448Z,27.70
2022-08-05T09:48:41.356Z,27.70
2022-08-05T09:53:59.201Z,27.40
2022-08-05T09:59:00.759Z,27.20
2022-08-05T10:04:10.462Z,27.10
2022-08-05T10:09:25.057Z,27.00
2022-08-05T10:14:30.235Z,27.00
2022-08-05T10:20:04.338Z,27.00
2022-08-05T10:24:50.720Z,27.10
2022-08-05T10:30:41.364Z,27.20
2022-08-05T10:35:10.241Z,27.10
2022-08-05T10:40:18.408Z,26.80
2022-08-05T10:45:23.698Z,26.40
2022-08-05T10:50:59.925Z,26.30
2022-08-05T10:56:21.042Z,26.50
2022-08-05T11:01:44.704Z,26.50
2022-08-05T11:07:08.238Z,26.50
2022-08-05T11:12:06.923Z,26.60
2022-08-05T11:17:57.253Z,27.10
2022-08-05T11:22:53.980Z,28.00
2022-08-05T11:28:00.793Z,28.80
2022-08-05T11:33:43.869Z,29.20
2022-08-05T11:38:57.817Z,29.90
2022-08-05T11:44:04.602Z,29.80
2022-08-05T11:49:08.036Z,30.10
2022-08-05T11:54:10.153Z,31.00
2022-08-05T11:59:15.728Z,31.70
2022-08-05T12:04:19.325Z,32.30
2022-08-05T12:09:53.503Z,32.70
2022-08-05T12:14:47.329Z,32.60
2022-08-05T12:20:27.889Z,32.30
2022-08-05T12:25:32.272Z,32.40
2022-08-05T12:30:38.991Z,32.70
2022-08-05T12:35:44.036Z,32.90
2022-08-05T12:40:47.515Z,32.60
2022-08-05T12:45:52.589Z,32.30
2022-08-05T12:52:11.131Z,32.20
2022-08-05T12:56:35.357Z,31.90
2022-08-05T13:02:00.105Z,32.00
2022-08-05T13:06:58.962Z,31.90
2022-08-05T13:12:05.844Z,31.20
2022-08-05T13:17:11.094Z,30.70
2022-08-05T13:22:12.090Z,30.50
2022-08-05T13:27:17.126Z,30.10
2022-08-05T13:32:35.130Z,29.90
2022-08-05T13:37:37.644Z,30.50
2022-08-05T13:42:37.085Z,30.90
2022-08-05T13:48:09.422Z,30.70
2022-08-05T13:52:55.498Z,30.30
2022-08-05T13:57:54.890Z,29.90
2022-08-05T14:02:52.916Z,29.70
2022-08-05T14:08:00.479Z,29.70
2022-08-05T14:13:07.686Z,30.00
2022-08-05T14:18:06.402Z,30.60
2022-08-05T14:23:19.188Z,30.70
2022-08-05T14:28:26.871Z,30.10
2022-08-05T14:33:25.498Z,30.10
2022-08-05T14:38:32.816Z,29.90
2022-08-05T14:44:02.271Z,29.80
2022-08-05T14:48:53.563Z,29.60
2022-08-05T14:54:27.428Z,29.30
2022-08-05T14:59:12.747Z,29.10
2022-08-05T15:04:11.836Z,29.00
2022-08-05T15:09:09.952Z,28.90
2022-08-05T15:14:08.581Z,28.70
2022-08-05T15:19:07.983Z,28.60
2022-08-05T15:24:21.376Z,28.40
2022-08-05T15:29:20.419Z,28.20
2022-08-05T15:34:32.166Z,28.00
2022-08-05T15:41:04.163Z,27.90
2022-08-05T15:44:49.462Z,27.70
2022-08-05T15:49:56.878Z,27.60
2022-08-05T15:54:57.326Z,27.40
2022-08-05T15:59:57.637Z,27.30
2022-08-05T16:04:57.291Z,27.20
2022-08-05T16:09:55.353Z,27.10
2022-08-05T16:14:53.505Z,26.80
2022-08-05T16:20:11.275Z,26.70
2022-08-05T16:25:11.282Z,26.70
2022-08-05T16:30:25.944Z,26.90
2022-08-05T16:35:27.869Z,26.80
2022-08-05T16:40:29.069Z,26.70
2022-08-05T16:46:03.929Z,26.40
2022-08-05T16:50:45.823Z,25.90
2022-08-05T16:55:47.113Z,25.40
2022-08-05T17:00:45.856Z,25.10
2022-08-05T17:05:50.243Z,25.40
2022-08-05T17:10:53.555Z,25.50
2022-08-05T17:15:55.624Z,25.50
2022-08-05T17:21:05.782Z,25.10
2022-08-05T17:26:05.447Z,24.80
2022-08-05T17:31:08.421Z,24.40
2022-08-05T17:36:32.782Z,24.00
2022-08-05T17:42:17.891Z,23.50
2022-08-05T17:46:52.566Z,23.00
2022-08-05T17:51:52.114Z,22.80
2022-08-05T17:56:54.602Z,22.70
2022-08-05T18:01:52.622Z,22.70
2022-08-05T18:06:54.370Z,22.60
2022-08-05T18:11:59.949Z,22.70
2022-08-05T18:16:58.048Z,22.70
2022-08-05T18:22:08.736Z,22.60
2022-08-05T18:27:12.705Z,22.50
2022-08-05T18:32:16.703Z,22.30
2022-08-05T18:37:16.927Z,22.20
2022-08-05T18:42:34.080Z,21.90
2022-08-05T18:47:32.159Z,21.90
2022-08-05T18:52:35.762Z,21.90
2022-08-05T18:57:43.024Z,21.80
2022-08-05T19:02:48.360Z,21.70
2022-08-05T19:07:47.894Z,21.70
2022-08-05T19:12:48.316Z,21.50
2022-08-05T19:18:08.101Z,21.50
2022-08-05T19:23:08.028Z,21.40
2022-08-05T19:28:07.621Z,21.20
2022-08-05T19:33:08.852Z,21.00
2022-08-05T19:38:14.731Z,20.80
2022-08-05T19:44:04.654Z,20.70
2022-08-05T19:48:32.238Z,20.90
2022-08-05T19:54:04.588Z,20.90
2022-08-05T19:58:53.881Z,20.90
2022-08-05T20:03:52.452Z,20.90
2022-08-05T20:08:51.561Z,20.90
2022-08-05T20:13:58.967Z,20.80
2022-08-05T20:19:10.337Z,20.70
2022-08-05T20:24:11.370Z,20.80
2022-08-05T20:29:26.872Z,20.80
2022-08-05T20:34:25.730Z,20.70
2022-08-05T20:39:23.834Z,20.60
2022-08-05T20:44:29.146Z,20.50
2022-08-05T20:49:28.860Z,20.50
2022-08-05T20:54:59.738Z,20.50
2022-08-05T21:00:20.738Z,20.40
2022-08-05T21:05:06.626Z,20.50
2022-08-05T21:10:09.350Z,20.40
2022-08-05T21:15:13.323Z,20.30
2022-08-05T21:20:12.264Z,20.40
2022-08-05T21:25:12.155Z,20.50
2022-08-05T21:30:10.984Z,20.50
2022-08-05T21:35:18.326Z,20.40
2022-08-05T21:40:28.287Z,20.30
2022-08-05T21:45:56.217Z,20.20
2022-08-05T21:50:53.145Z,20.10
2022-08-05T21:56:05.209Z,20.10
2022-08-05T22:01:07.935Z,20.00
2022-08-05T22:06:10.194Z,20.00
2022-08-05T22:11:09.025Z,19.80
2022-08-05T22:16:26.067Z,19.70
2022-08-05T22:21:27.645Z,19.60
2022-08-05T22:26:49.830Z,19.60
2022-08-05T22:31:55.164Z,19.40
2022-08-05T22:36:59.486Z,19.40
2022-08-05T22:42:09.721Z,19.40
2022-08-05T22:47:11.206Z,19.30
2022-08-05T22:52:22.819Z,19.30
2022-08-05T22:57:36.350Z,19.20
2022-08-05T23:02:35.185Z,19.00
2022-08-05T23:07:45.179Z,18.90
2022-08-05T23:12:46.408Z,18.90
2022-08-05T23:18:00.824Z,18.90
2022-08-05T23:23:03.540Z,18.80
2022-08-05T23:28:04.190Z,18.70
2022-08-05T23:33:05.395Z,18.40
2022-08-05T23:38:15.829Z,18.40
2022-08-05T23:43:25.712Z,18.20
2022-08-05T23:48:32.899Z,18.20
2022-08-05T23:53:46.353Z,18.20
2022-08-05T23:58:45.267Z,18.40
